Time;durP1;ratioP1;P1;durP2;ratioP2;P2;SDS_P1;SDS_P2;PMS_P1;PMS_P2;Temp;Humidity;BMP_temperature;BMP_pressure;BME280_temperature;BME280_humidity;BME280_pressure;Samples;Min_cycle;Max_cycle;Signal;HPM_P1;HPM_P2
2023/12/04 00:01:50;;;;;;;44.13;26.37;;;0.90;99.90;;;;;;6220718;23;20729;-72
2023/12/04 00:04:16;;;;;;;47.70;27.27;;;0.90;99.90;;;;;;6244460;23;20429;-72
2023/12/04 00:06:42;;;;;;;45.00;26.33;;;0.90;99.90;;;;;;6245525;23;20024;-72
2023/12/04 00:09:07;;;;;;;45.47;25.97;;;0.90;99.90;;;;;;6245036;23;20013;-72
2023/12/04 00:11:33;;;;;;;44.87;27.10;;;0.80;99.90;;;;;;6194289;23;20062;-72
2023/12/04 00:13:59;;;;;;;40.90;25.47;;;0.90;99.90;;;;;;6246980;23;20355;-71
2023/12/04 00:16:26;;;;;;;45.40;27.10;;;0.80;99.90;;;;;;6219636;23;20047;-72
2023/12/04 00:18:52;;;;;;;45.03;26.33;;;0.80;99.90;;;;;;6244926;23;20514;-72
2023/12/04 00:21:17;;;;;;;41.90;25.60;;;0.90;99.90;;;;;;6193773;23;20024;-71
2023/12/04 00:23:43;;;;;;;41.53;25.10;;;0.80;99.90;;;;;;6244981;23;20607;-71
2023/12/04 00:26:09;;;;;;;41.73;26.13;;;0.80;99.90;;;;;;6194242;23;20020;-72
2023/12/04 00:28:38;;;;;;;44.40;25.63;;;0.80;99.90;;;;;;6219494;23;20028;-72
2023/12/04 00:31:04;;;;;;;43.17;23.83;;;0.80;99.90;;;;;;6245354;23;20408;-71
2023/12/04 00:33:29;;;;;;;45.87;26.03;;;0.80;99.90;;;;;;6218969;23;20063;-72
2023/12/04 00:35:56;;;;;;;42.87;25.03;;;0.80;99.90;;;;;;6244857;23;20068;-72
2023/12/04 00:38:22;;;;;;;42.53;25.13;;;0.80;99.90;;;;;;6243319;23;20016;-70
2023/12/04 00:40:48;;;;;;;45.57;26.13;;;0.80;99.90;;;;;;6246991;23;20020;-72
2023/12/04 00:43:13;;;;;;;43.57;24.83;;;0.80;99.90;;;;;;6169338;23;20016;-72
2023/12/04 00:45:39;;;;;;;44.57;25.87;;;0.80;99.90;;;;;;6244330;23;20024;-71
2023/12/04 00:48:05;;;;;;;43.93;25.03;;;0.80;99.90;;;;;;6194435;23;20024;-72
2023/12/04 00:50:31;;;;;;;44.20;25.53;;;0.80;99.90;;;;;;6245933;23;20072;-72
2023/12/04 00:52:56;;;;;;;40.70;23.73;;;0.80;99.90;;;;;;6247964;23;20537;-72
2023/12/04 00:55:22;;;;;;;41.13;22.73;;;0.80;99.90;;;;;;6245881;23;20125;-72
2023/12/04 00:57:48;;;;;;;45.70;25.20;;;0.80;99.90;;;;;;6197314;23;20086;-72
2023/12/04 01:00:14;;;;;;;46.60;25.40;;;0.80;99.90;;;;;;6220825;23;20023;-71
2023/12/04 01:02:40;;;;;;;43.53;25.67;;;0.80;99.90;;;;;;6246253;23;20024;-72
2023/12/04 01:05:06;;;;;;;42.57;25.17;;;0.80;99.90;;;;;;6196347;23;20114;-72
2023/12/04 01:07:32;;;;;;;41.40;24.53;;;0.80;99.90;;;;;;6171082;23;20509;-72
2023/12/04 01:09:57;;;;;;;39.57;23.83;;;0.90;99.90;;;;;;6247348;23;20023;-72
2023/12/04 01:12:23;;;;;;;41.00;24.30;;;0.80;99.90;;;;;;6246429;23;20083;-72
2023/12/04 01:14:49;;;;;;;39.67;23.10;;;0.80;99.90;;;;;;6248019;23;20240;-72
2023/12/04 01:17:14;;;;;;;40.30;24.00;;;0.80;99.90;;;;;;6221515;23;20043;-71
2023/12/04 01:19:40;;;;;;;42.67;26.10;;;0.80;99.90;;;;;;6196691;23;20468;-72
2023/12/04 01:22:06;;;;;;;47.37;25.70;;;0.80;99.90;;;;;;6247208;23;20095;-71
2023/12/04 01:24:31;;;;;;;43.93;24.33;;;0.80;99.90;;;;;;6195954;23;20023;-72
2023/12/04 01:26:57;;;;;;;38.67;23.27;;;0.80;99.90;;;;;;6248916;23;20016;-72
2023/12/04 01:29:23;;;;;;;42.50;24.83;;;0.80;99.90;;;;;;6196335;23;20357;-72
2023/12/04 01:31:48;;;;;;;42.60;24.50;;;0.80;99.90;;;;;;6221846;23;20074;-72
2023/12/04 01:34:14;;;;;;;46.33;25.97;;;0.80;99.90;;;;;;6248265;23;20027;-72
2023/12/04 01:36:41;;;;;;;41.00;24.10;;;0.80;99.90;;;;;;6249250;23;20038;-71
2023/12/04 01:39:06;;;;;;;42.40;24.70;;;0.80;99.90;;;;;;6196005;23;20070;-72
2023/12/04 01:41:32;;;;;;;44.07;25.07;;;0.80;99.90;;;;;;6248494;23;20024;-71
2023/12/04 01:43:58;;;;;;;41.10;24.73;;;0.80;99.90;;;;;;6246720;23;20559;-72
2023/12/04 01:46:24;;;;;;;39.43;24.07;;;0.80;99.90;;;;;;6221002;23;20027;-72
2023/12/04 01:48:50;;;;;;;43.93;25.17;;;0.80;99.90;;;;;;6248305;23;20043;-72
2023/12/04 01:51:18;;;;;;;41.37;24.80;;;0.80;99.90;;;;;;6220170;23;20435;-71
2023/12/04 01:53:44;;;;;;;41.70;24.47;;;0.80;99.90;;;;;;6247260;23;20376;-71
2023/12/04 01:56:10;;;;;;;39.70;23.23;;;0.80;99.90;;;;;;6248038;23;20028;-71
2023/12/04 01:58:37;;;;;;;40.77;23.13;;;0.80;99.90;;;;;;6248121;23;20020;-71
2023/12/04 02:01:04;;;;;;;40.47;25.00;;;0.80;99.90;;;;;;6245882;23;20102;-71
2023/12/04 02:03:30;;;;;;;44.30;23.77;;;0.80;99.90;;;;;;6245415;23;20085;-71
2023/12/04 02:05:59;;;;;;;39.97;23.87;;;0.80;99.90;;;;;;6195340;23;20024;-71
2023/12/04 02:08:26;;;;;;;39.07;23.53;;;0.80;99.90;;;;;;6246851;23;20337;-71
2023/12/04 02:10:51;;;;;;;40.37;23.60;;;0.80;99.90;;;;;;6196441;23;20091;-71
2023/12/04 02:13:17;;;;;;;40.93;24.77;;;0.80;99.90;;;;;;6247681;23;20016;-71
2023/12/04 02:15:43;;;;;;;40.53;23.10;;;0.70;99.90;;;;;;6220863;23;20254;-71
2023/12/04 02:18:10;;;;;;;41.10;24.37;;;0.80;99.90;;;;;;6246174;23;20175;-71
2023/12/04 02:20:36;;;;;;;44.30;24.43;;;0.80;99.90;;;;;;6220570;23;20030;-71
2023/12/04 02:23:02;;;;;;;43.23;24.70;;;0.80;99.90;;;;;;6245786;23;20108;-71
2023/12/04 02:25:32;;;;;;;37.83;23.10;;;0.80;99.90;;;;;;6246939;23;20024;-70
2023/12/04 02:28:01;;;;;;;40.50;23.57;;;0.80;99.90;;;;;;6248466;23;20052;-71
2023/12/04 02:30:29;;;;;;;39.53;23.70;;;0.80;99.90;;;;;;6247519;23;20035;-71
2023/12/04 02:32:57;;;;;;;43.37;24.70;;;0.80;99.90;;;;;;6247554;23;20027;-71
2023/12/04 02:35:27;;;;;;;43.07;24.93;;;0.80;99.90;;;;;;6221066;23;20059;-71
2023/12/04 02:37:53;;;;;;;40.67;23.37;;;0.80;99.90;;;;;;6247175;23;20083;-71
2023/12/04 02:40:19;;;;;;;42.77;23.77;;;0.80;99.90;;;;;;6196915;23;20016;-72
2023/12/04 02:42:45;;;;;;;41.93;24.83;;;0.90;99.90;;;;;;6245338;23;20031;-71
2023/12/04 02:45:11;;;;;;;37.63;22.37;;;0.90;99.90;;;;;;6246340;23;20020;-71
2023/12/04 02:47:37;;;;;;;40.20;22.17;;;0.90;99.90;;;;;;6247197;23;20024;-71
2023/12/04 02:50:03;;;;;;;36.70;23.23;;;0.90;99.90;;;;;;6246010;23;20121;-71
2023/12/04 02:52:29;;;;;;;36.90;22.50;;;0.90;99.90;;;;;;6220251;23;20020;-71
2023/12/04 02:54:54;;;;;;;39.37;23.97;;;0.90;99.90;;;;;;6246383;23;20395;-71
2023/12/04 02:57:21;;;;;;;39.07;23.00;;;0.90;99.90;;;;;;6247309;23;20076;-71
2023/12/04 02:59:48;;;;;;;37.70;22.63;;;0.90;99.90;;;;;;6247706;23;20058;-71
2023/12/04 03:02:14;;;;;;;37.67;21.60;;;0.90;99.90;;;;;;6248618;23;20027;-71
2023/12/04 03:04:39;;;;;;;38.13;23.73;;;0.90;99.90;;;;;;6247285;23;20024;-71
2023/12/04 03:07:05;;;;;;;40.30;22.83;;;1.00;99.90;;;;;;6246273;23;20016;-71
2023/12/04 03:09:31;;;;;;;39.43;22.43;;;0.90;99.90;;;;;;6247181;23;20047;-71
2023/12/04 03:11:56;;;;;;;36.70;21.23;;;1.00;99.90;;;;;;6245110;23;20020;-71
2023/12/04 03:14:22;;;;;;;37.33;21.87;;;1.00;99.90;;;;;;6247179;23;20051;-71
2023/12/04 03:16:47;;;;;;;39.10;22.97;;;1.00;99.90;;;;;;6244597;23;20078;-71
2023/12/04 03:19:13;;;;;;;35.57;20.63;;;1.00;99.90;;;;;;6245621;23;20031;-71
2023/12/04 03:21:39;;;;;;;37.43;21.77;;;1.00;99.90;;;;;;6245442;23;20024;-71
2023/12/04 03:24:04;;;;;;;35.10;20.70;;;1.10;99.90;;;;;;6220555;23;20032;-72
2023/12/04 03:26:30;;;;;;;33.80;21.20;;;1.10;99.90;;;;;;6244879;23;20518;-71
2023/12/04 03:28:56;;;;;;;37.70;21.90;;;1.00;99.90;;;;;;6246697;23;20020;-71
2023/12/04 03:31:22;;;;;;;36.87;21.57;;;1.00;99.90;;;;;;6247588;23;20020;-71
2023/12/04 03:33:48;;;;;;;36.03;21.17;;;1.00;99.90;;;;;;6244604;23;20027;-71
2023/12/04 03:36:14;;;;;;;36.13;21.57;;;1.00;99.90;;;;;;6220511;23;20009;-72
2023/12/04 03:38:39;;;;;;;36.27;21.90;;;1.00;99.90;;;;;;6244339;23;20090;-72
2023/12/04 03:41:12;;;;;;;39.10;22.77;;;1.00;99.90;;;;;;6245176;23;20020;-72
2023/12/04 03:43:38;;;;;;;36.23;22.10;;;1.00;99.90;;;;;;6219511;23;20024;-71
2023/12/04 03:46:04;;;;;;;34.20;21.33;;;1.00;99.90;;;;;;6246454;23;20055;-72
2023/12/04 03:48:30;;;;;;;36.63;21.80;;;1.00;99.90;;;;;;6246995;23;20542;-72
2023/12/04 03:50:55;;;;;;;36.97;21.67;;;1.00;99.90;;;;;;6219182;23;20048;-71
2023/12/04 03:53:21;;;;;;;37.20;21.63;;;1.00;99.90;;;;;;6220358;23;20471;-71
2023/12/04 03:55:47;;;;;;;33.07;20.40;;;1.00;99.90;;;;;;6219256;23;20028;-71
2023/12/04 03:58:12;;;;;;;35.17;21.57;;;1.00;99.90;;;;;;6219748;23;20055;-71
2023/12/04 04:00:41;;;;;;;34.40;20.83;;;1.00;99.90;;;;;;6246318;23;20019;-71
2023/12/04 04:03:07;;;;;;;35.03;21.20;;;1.00;99.90;;;;;;6220155;23;20023;-70
2023/12/04 04:05:34;;;;;;;39.70;21.37;;;0.90;99.90;;;;;;6246718;23;20020;-70
2023/12/04 04:08:00;;;;;;;34.33;21.27;;;1.00;99.90;;;;;;6245428;23;20020;-71
2023/12/04 04:10:25;;;;;;;39.50;21.73;;;1.00;99.90;;;;;;6194476;23;20062;-71
2023/12/04 04:12:51;;;;;;;36.03;21.63;;;1.00;99.90;;;;;;6193969;23;20020;-72
2023/12/04 04:15:17;;;;;;;34.73;21.67;;;1.00;99.90;;;;;;6244964;23;20016;-72
2023/12/04 04:17:42;;;;;;;37.87;22.77;;;1.10;99.90;;;;;;6193414;23;20020;-71
2023/12/04 04:20:10;;;;;;;35.57;21.57;;;1.10;99.90;;;;;;6246133;23;20087;-72
2023/12/04 04:22:37;;;;;;;36.50;21.93;;;1.10;99.90;;;;;;6246541;23;20024;-71
2023/12/04 04:25:06;;;;;;;33.77;20.87;;;1.10;99.90;;;;;;6243974;23;20028;-71
2023/12/04 04:27:31;;;;;;;36.47;21.43;;;1.10;99.90;;;;;;6219543;23;20024;-71
2023/12/04 04:29:57;;;;;;;35.00;21.57;;;1.10;99.90;;;;;;6246161;23;20041;-71
2023/12/04 04:32:23;;;;;;;33.90;21.03;;;1.10;99.90;;;;;;6245228;23;20027;-71
2023/12/04 04:34:48;;;;;;;38.27;21.97;;;1.10;99.90;;;;;;6194105;23;20146;-71
2023/12/04 04:37:14;;;;;;;35.03;21.77;;;1.10;99.90;;;;;;6194133;23;20020;-71
2023/12/04 04:39:40;;;;;;;37.40;22.03;;;1.10;99.90;;;;;;6244902;23;20044;-71
2023/12/04 04:42:06;;;;;;;41.20;23.07;;;1.00;99.90;;;;;;6244736;23;20068;-72
2023/12/04 04:44:31;;;;;;;38.33;21.40;;;1.00;99.90;;;;;;6219968;23;20438;-71
2023/12/04 04:46:57;;;;;;;35.57;21.53;;;1.00;99.90;;;;;;6244233;23;20091;-71
2023/12/04 04:49:22;;;;;;;36.50;21.97;;;1.00;99.90;;;;;;6245465;23;20039;-72
2023/12/04 04:51:48;;;;;;;37.20;21.60;;;1.00;99.90;;;;;;6244978;23;20020;-71
2023/12/04 04:54:14;;;;;;;37.03;22.13;;;1.00;99.90;;;;;;6244856;23;20042;-72
2023/12/04 04:56:40;;;;;;;39.23;22.20;;;1.00;99.90;;;;;;6244282;23;20016;-71
2023/12/04 04:59:05;;;;;;;37.97;21.03;;;1.00;99.90;;;;;;6244271;23;20051;-70
2023/12/04 05:01:31;;;;;;;36.13;21.60;;;1.00;99.90;;;;;;6245301;23;20024;-72
2023/12/04 05:03:57;;;;;;;36.73;21.30;;;1.00;99.90;;;;;;6244639;23;20042;-71
2023/12/04 05:06:23;;;;;;;36.97;20.60;;;1.00;99.90;;;;;;6245264;23;20027;-71
2023/12/04 05:08:52;;;;;;;35.93;21.13;;;1.00;99.90;;;;;;6218950;23;20028;-71
2023/12/04 05:11:17;;;;;;;34.23;21.47;;;0.90;99.90;;;;;;6219255;23;20012;-72
2023/12/04 05:13:45;;;;;;;34.53;20.80;;;0.90;99.90;;;;;;6244363;23;20081;-71
2023/12/04 05:16:11;;;;;;;33.40;21.17;;;1.00;99.90;;;;;;6246177;23;20024;-73
2023/12/04 05:18:38;;;;;;;32.80;20.63;;;1.00;99.90;;;;;;6170009;23;20051;-72
2023/12/04 05:21:08;;;;;;;30.33;20.17;;;1.00;99.90;;;;;;6244172;23;20047;-72
2023/12/04 05:23:34;;;;;;;32.67;20.00;;;1.00;99.90;;;;;;6245361;23;20020;-72
2023/12/04 05:26:00;;;;;;;35.00;20.57;;;1.00;99.90;;;;;;6169363;23;20077;-72
2023/12/04 05:28:25;;;;;;;33.13;19.63;;;1.00;99.90;;;;;;6194132;23;20028;-72
2023/12/04 05:30:51;;;;;;;35.60;20.57;;;1.00;99.90;;;;;;6246756;23;20027;-70
2023/12/04 05:33:17;;;;;;;30.50;19.70;;;1.00;99.90;;;;;;6246307;23;20020;-70
2023/12/04 05:35:42;;;;;;;32.47;19.80;;;1.00;99.90;;;;;;6246004;23;20464;-72
2023/12/04 05:38:08;;;;;;;30.60;19.60;;;0.90;99.90;;;;;;6192865;23;20361;-72
2023/12/04 05:40:34;;;;;;;33.63;19.57;;;1.00;99.90;;;;;;6247364;23;20031;-77
2023/12/04 05:43:00;;;;;;;31.90;19.40;;;1.00;99.90;;;;;;6245470;23;20031;-73
2023/12/04 05:45:25;;;;;;;31.37;19.33;;;1.00;99.90;;;;;;6246092;23;20109;-72
2023/12/04 05:47:52;;;;;;;32.33;20.73;;;1.00;99.90;;;;;;6220751;23;20075;-72
2023/12/04 05:50:18;;;;;;;32.00;18.93;;;1.00;99.90;;;;;;6246867;23;20024;-71
2023/12/04 05:52:44;;;;;;;28.93;18.97;;;1.00;99.90;;;;;;6247230;23;20031;-72
2023/12/04 05:55:10;;;;;;;32.47;18.53;;;1.00;99.90;;;;;;6195463;23;20338;-71
2023/12/04 05:57:38;;;;;;;32.67;20.00;;;1.10;99.90;;;;;;6246663;23;20028;-72
2023/12/04 06:00:12;;;;;;;33.50;19.33;;;1.00;99.90;;;;;;6247432;23;20048;-72
2023/12/04 06:02:46;;;;;;;31.13;19.47;;;1.10;99.90;;;;;;6247618;23;20125;-72
2023/12/04 06:05:12;;;;;;;33.77;20.70;;;1.10;99.90;;;;;;6220840;23;20024;-72
2023/12/04 06:07:38;;;;;;;34.03;19.60;;;1.10;99.90;;;;;;6246791;23;20102;-72
2023/12/04 06:10:04;;;;;;;33.93;19.70;;;1.20;99.90;;;;;;6246072;23;20024;-71
2023/12/04 06:12:30;;;;;;;30.63;18.73;;;1.20;99.90;;;;;;6246881;23;20026;-72
2023/12/04 06:14:56;;;;;;;31.70;19.27;;;1.20;99.90;;;;;;6221186;23;20024;-70
2023/12/04 06:17:21;;;;;;;33.23;20.33;;;1.20;99.90;;;;;;6247657;23;20102;-72
2023/12/04 06:19:47;;;;;;;29.20;18.73;;;1.10;99.90;;;;;;6220428;23;20020;-71
2023/12/04 06:22:13;;;;;;;33.03;20.40;;;1.10;99.90;;;;;;6247677;23;20031;-71
2023/12/04 06:24:40;;;;;;;35.50;20.63;;;1.20;99.90;;;;;;6220588;23;20023;-71
2023/12/04 06:27:09;;;;;;;33.90;20.53;;;1.20;99.90;;;;;;6221004;23;20020;-71
2023/12/04 06:29:35;;;;;;;29.37;18.70;;;1.10;99.90;;;;;;6195323;23;20028;-71
2023/12/04 06:32:01;;;;;;;34.23;20.63;;;1.10;99.90;;;;;;6221256;23;20532;-71
2023/12/04 06:34:27;;;;;;;33.03;20.07;;;1.10;99.90;;;;;;6246857;23;20093;-71
2023/12/04 06:36:54;;;;;;;31.57;19.80;;;1.10;99.90;;;;;;6246222;23;20075;-70
2023/12/04 06:39:20;;;;;;;30.77;18.37;;;1.10;99.90;;;;;;6247686;23;20028;-71
2023/12/04 06:41:48;;;;;;;32.63;19.47;;;1.10;99.90;;;;;;6247949;23;20023;-72
2023/12/04 06:44:14;;;;;;;31.30;18.50;;;1.10;99.90;;;;;;6218923;23;20461;-78
2023/12/04 06:46:42;;;;;;;31.27;19.10;;;1.10;99.90;;;;;;6243279;23;20024;-73
2023/12/04 06:49:11;;;;;;;32.77;18.30;;;1.10;99.90;;;;;;6219916;23;20028;-72
2023/12/04 06:51:37;;;;;;;28.70;18.37;;;1.10;99.90;;;;;;6244954;23;20028;-72
2023/12/04 06:54:03;;;;;;;27.43;17.37;;;1.00;99.90;;;;;;6195531;23;20214;-72
2023/12/04 06:56:28;;;;;;;30.43;18.57;;;1.00;99.90;;;;;;6245347;23;20016;-72
2023/12/04 06:58:54;;;;;;;29.10;17.53;;;1.00;99.90;;;;;;6247140;23;20020;-71
2023/12/04 07:01:21;;;;;;;28.57;17.47;;;1.10;99.90;;;;;;6245732;23;20031;-71
2023/12/04 07:03:47;;;;;;;29.07;17.63;;;1.00;99.90;;;;;;6245014;23;20024;-71
2023/12/04 07:06:14;;;;;;;26.73;16.70;;;1.00;99.90;;;;;;6247500;23;20024;-71
2023/12/04 07:08:40;;;;;;;28.20;17.80;;;1.00;99.90;;;;;;6218996;23;20028;-71
2023/12/04 07:11:07;;;;;;;27.87;17.63;;;1.00;99.90;;;;;;6247820;23;20768;-71
2023/12/04 07:13:34;;;;;;;26.63;17.17;;;1.10;99.90;;;;;;6247052;23;20031;-71
2023/12/04 07:15:59;;;;;;;28.90;16.87;;;1.00;99.90;;;;;;6246233;23;20146;-71
2023/12/04 07:18:26;;;;;;;26.47;16.97;;;1.00;99.90;;;;;;6245017;23;20020;-71
2023/12/04 07:20:52;;;;;;;28.53;17.20;;;1.00;99.90;;;;;;6194359;23;20016;-71
2023/12/04 07:23:17;;;;;;;26.80;17.00;;;1.00;99.90;;;;;;6245903;23;20082;-71
2023/12/04 07:25:43;;;;;;;26.73;16.97;;;1.00;99.90;;;;;;6246164;23;20020;-70
2023/12/04 07:28:08;;;;;;;29.63;17.37;;;1.00;99.90;;;;;;6245660;23;20052;-71
2023/12/04 07:30:34;;;;;;;26.43;16.57;;;1.10;99.90;;;;;;6244178;23;20055;-70
2023/12/04 07:33:00;;;;;;;26.23;16.53;;;1.00;99.90;;;;;;6247265;23;20026;-71
2023/12/04 07:35:26;;;;;;;26.50;16.37;;;1.00;99.90;;;;;;6245553;23;20031;-72
2023/12/04 07:37:52;;;;;;;27.70;16.53;;;1.10;99.90;;;;;;6244191;23;20064;-71
2023/12/04 07:40:18;;;;;;;24.57;16.27;;;1.10;99.90;;;;;;6247593;23;20020;-72
2023/12/04 07:42:44;;;;;;;26.40;15.87;;;1.10;99.90;;;;;;6244706;23;20019;-71
2023/12/04 07:45:10;;;;;;;26.13;16.40;;;1.10;99.90;;;;;;6220671;23;20012;-71
2023/12/04 07:47:36;;;;;;;26.67;16.43;;;1.10;99.90;;;;;;6247370;23;20020;-71
2023/12/04 07:50:02;;;;;;;24.27;15.70;;;1.10;99.90;;;;;;6247559;23;20012;-71
2023/12/04 07:52:28;;;;;;;28.13;16.03;;;1.10;99.90;;;;;;6247393;23;20070;-71
2023/12/04 07:54:54;;;;;;;26.20;15.87;;;1.10;99.90;;;;;;6219741;23;20048;-71
2023/12/04 07:57:19;;;;;;;22.03;14.50;;;1.10;99.90;;;;;;6246327;23;20031;-71
2023/12/04 07:59:45;;;;;;;23.10;15.13;;;1.00;99.90;;;;;;6245737;23;20054;-71
2023/12/04 08:02:11;;;;;;;22.00;14.67;;;1.10;99.90;;;;;;6195638;23;20024;-71
2023/12/04 08:04:36;;;;;;;24.27;15.50;;;1.10;99.90;;;;;;6195020;23;20075;-71
2023/12/04 08:07:02;;;;;;;23.17;14.63;;;1.10;99.90;;;;;;6219328;23;20028;-72
2023/12/04 08:09:28;;;;;;;24.93;14.90;;;1.10;99.90;;;;;;6247323;23;20347;-72
2023/12/04 08:11:53;;;;;;;22.10;14.37;;;1.20;99.90;;;;;;6218542;23;20019;-72
2023/12/04 08:14:19;;;;;;;22.70;14.70;;;1.20;99.90;;;;;;6212239;23;20322;-73
2023/12/04 08:16:45;;;;;;;22.53;14.90;;;1.20;99.90;;;;;;6235450;23;20024;-72
2023/12/04 08:19:10;;;;;;;21.57;13.97;;;1.20;99.90;;;;;;6211616;23;20036;-72
2023/12/04 08:21:36;;;;;;;22.20;14.53;;;1.20;99.90;;;;;;6242761;23;20024;-72
2023/12/04 08:24:02;;;;;;;22.07;13.80;;;1.20;99.90;;;;;;6194624;23;20020;-72
2023/12/04 08:26:27;;;;;;;23.20;14.97;;;1.30;99.90;;;;;;6243331;23;20110;-71
2023/12/04 08:28:53;;;;;;;23.00;14.30;;;1.30;99.90;;;;;;6245282;23;20031;-72
2023/12/04 08:31:19;;;;;;;21.00;14.00;;;1.30;99.90;;;;;;6194430;23;20024;-71
2023/12/04 08:33:45;;;;;;;25.90;17.37;;;1.30;99.90;;;;;;6244374;23;20395;-72
2023/12/04 08:36:13;;;;;;;21.47;12.97;;;1.30;99.90;;;;;;6246553;23;20105;-73
2023/12/04 08:38:39;;;;;;;21.00;13.70;;;1.30;99.90;;;;;;6218822;23;20480;-71
2023/12/04 08:41:05;;;;;;;34.40;19.77;;;1.30;99.90;;;;;;6246923;23;20035;-72
2023/12/04 08:43:31;;;;;;;21.67;13.57;;;1.30;99.90;;;;;;6247057;23;20023;-72
2023/12/04 08:45:57;;;;;;;23.90;14.10;;;1.30;99.90;;;;;;6246673;23;20027;-72
2023/12/04 08:48:22;;;;;;;20.67;13.13;;;1.30;99.90;;;;;;6196520;23;20460;-72
2023/12/04 08:50:48;;;;;;;22.00;13.90;;;1.30;99.90;;;;;;6244379;23;20024;-72
2023/12/04 08:53:14;;;;;;;20.07;13.10;;;1.30;99.90;;;;;;6244444;23;20027;-72
2023/12/04 08:55:40;;;;;;;20.47;12.83;;;1.30;99.90;;;;;;6246116;23;20032;-72
2023/12/04 08:58:10;;;;;;;23.00;14.43;;;1.40;99.90;;;;;;6244706;23;20024;-73
2023/12/04 09:00:37;;;;;;;22.27;14.50;;;1.30;99.90;;;;;;6246412;23;20054;-72
2023/12/04 09:03:03;;;;;;;21.03;13.10;;;1.30;99.90;;;;;;6218865;23;20058;-73
2023/12/04 09:05:29;;;;;;;21.60;14.33;;;1.40;99.90;;;;;;6244961;23;20020;-72
2023/12/04 09:07:54;;;;;;;21.30;13.20;;;1.40;99.90;;;;;;6245654;23;20020;-72
2023/12/04 09:10:20;;;;;;;19.63;13.00;;;1.40;99.90;;;;;;6194883;23;20505;-72
2023/12/04 09:12:46;;;;;;;20.63;12.87;;;1.40;99.90;;;;;;6246237;23;20464;-72
2023/12/04 09:15:11;;;;;;;21.20;13.63;;;1.40;99.90;;;;;;6246619;23;20024;-72
2023/12/04 09:17:37;;;;;;;18.27;12.67;;;1.40;99.90;;;;;;6246606;23;20024;-73
2023/12/04 09:20:05;;;;;;;23.10;15.47;;;1.50;99.90;;;;;;6221083;23;20048;-72
2023/12/04 09:22:31;;;;;;;22.00;12.90;;;1.50;99.90;;;;;;6221366;23;20149;-72
2023/12/04 09:24:57;;;;;;;21.73;14.43;;;1.50;99.90;;;;;;6220976;23;20217;-72
2023/12/04 09:27:23;;;;;;;20.20;13.07;;;1.50;99.90;;;;;;6247224;23;20023;-71
2023/12/04 09:29:48;;;;;;;32.07;17.37;;;1.50;99.90;;;;;;6248197;23;20456;-72
2023/12/04 09:32:14;;;;;;;87.73;37.30;;;1.50;99.90;;;;;;6247732;23;20034;-72
2023/12/04 09:34:40;;;;;;;48.90;28.37;;;1.60;99.90;;;;;;6248948;23;21081;-73
2023/12/04 09:37:05;;;;;;;30.47;18.43;;;1.60;99.90;;;;;;6246868;23;20024;-71
2023/12/04 09:39:31;;;;;;;19.93;13.53;;;1.70;99.90;;;;;;6221982;23;20027;-71
2023/12/04 09:41:58;;;;;;;22.87;16.33;;;1.70;99.90;;;;;;6196721;23;20496;-72
2023/12/04 09:44:26;;;;;;;29.57;21.63;;;1.70;99.90;;;;;;6248862;23;20046;-72
2023/12/04 09:46:52;;;;;;;23.23;16.20;;;1.70;99.90;;;;;;6247933;23;20309;-71
2023/12/04 09:49:18;;;;;;;20.53;15.17;;;1.70;99.90;;;;;;6197269;23;21034;-72
2023/12/04 09:51:44;;;;;;;20.00;14.97;;;1.80;99.90;;;;;;6246769;23;20024;-72
2023/12/04 09:54:11;;;;;;;25.10;19.23;;;1.80;99.90;;;;;;6246314;23;20028;-72
2023/12/04 09:56:37;;;;;;;23.43;16.00;;;1.80;99.90;;;;;;6221502;23;20024;-72
2023/12/04 09:59:05;;;;;;;21.47;14.63;;;1.80;99.90;;;;;;6248026;23;20024;-72
2023/12/04 10:01:32;;;;;;;19.37;13.73;;;1.80;99.90;;;;;;6249055;23;20040;-72
2023/12/04 10:03:58;;;;;;;17.07;12.07;;;1.90;99.90;;;;;;6194932;23;20072;-72
2023/12/04 10:06:28;;;;;;;15.43;11.17;;;1.90;99.90;;;;;;6220630;23;20024;-72
2023/12/04 10:08:57;;;;;;;17.50;12.40;;;1.90;99.90;;;;;;6195962;23;20023;-72
2023/12/04 10:11:24;;;;;;;16.50;11.57;;;1.90;99.90;;;;;;6195907;23;20024;-72
2023/12/04 10:13:51;;;;;;;17.60;12.10;;;2.00;99.90;;;;;;6247474;23;20537;-72
2023/12/04 10:16:36;;;;;;;18.03;11.13;;;2.00;99.90;;;;;;6247514;23;20051;-73
2023/12/04 10:19:26;;;;;;;16.10;11.30;;;2.00;99.90;;;;;;6220447;23;20016;-72
2023/12/04 10:21:53;;;;;;;16.63;11.50;;;2.00;99.90;;;;;;6247544;23;20314;-72
2023/12/04 10:24:36;;;;;;;14.47;10.43;;;2.10;99.90;;;;;;6247637;23;20247;-71
2023/12/04 10:27:07;;;;;;;15.23;11.07;;;2.10;99.90;;;;;;6248277;23;20791;-72
2023/12/04 10:29:47;;;;;;;14.37;9.73;;;2.10;99.90;;;;;;6246609;23;20020;-72
2023/12/04 10:32:13;;;;;;;17.20;11.47;;;2.10;99.90;;;;;;6220580;23;20028;-72
2023/12/04 10:34:42;;;;;;;17.03;10.93;;;2.20;99.90;;;;;;6220501;23;20024;-72
2023/12/04 10:37:10;;;;;;;18.13;11.70;;;2.20;99.90;;;;;;6246950;23;20020;-72
2023/12/04 10:39:50;;;;;;;20.40;13.87;;;2.10;99.90;;;;;;6220436;23;20399;-73
2023/12/04 10:42:32;;;;;;;16.03;11.70;;;2.10;99.90;;;;;;6219558;23;20028;-75
2023/12/04 10:44:58;;;;;;;17.95;11.45;;;2.20;99.90;;;;;;6195802;23;20028;-72
2023/12/04 10:47:25;;;;;;;18.47;12.33;;;2.20;99.90;;;;;;6220195;23;20023;-71
2023/12/04 10:49:52;;;;;;;17.80;11.53;;;2.20;99.90;;;;;;6220193;23;20469;-71
2023/12/04 10:52:21;;;;;;;17.60;12.07;;;2.20;99.90;;;;;;6223282;23;20086;-71
2023/12/04 10:54:47;;;;;;;16.67;11.67;;;2.30;99.90;;;;;;6220974;23;20031;-71
2023/12/04 10:57:21;;;;;;;18.70;11.17;;;2.30;99.90;;;;;;6195923;23;20024;-71
2023/12/04 10:59:47;;;;;;;16.80;10.73;;;2.30;99.90;;;;;;6244185;23;20024;-72
2023/12/04 11:02:21;;;;;;;14.47;10.07;;;2.20;99.90;;;;;;6247914;23;20023;-72
2023/12/04 11:04:50;;;;;;;16.47;10.43;;;2.30;99.90;;;;;;6247471;23;20024;-72
2023/12/04 11:07:18;;;;;;;13.43;9.73;;;2.30;99.90;;;;;;6220459;23;20078;-72
2023/12/04 11:09:46;;;;;;;15.30;10.03;;;2.30;99.90;;;;;;6194868;23;20076;-72
2023/12/04 11:12:17;;;;;;;14.77;10.33;;;2.30;99.90;;;;;;6245275;23;20024;-72
2023/12/04 11:14:49;;;;;;;15.75;10.63;;;2.30;99.90;;;;;;6246748;23;20077;-72
2023/12/04 11:17:16;;;;;;;19.50;13.20;;;2.30;99.90;;;;;;6247298;23;20087;-73
2023/12/04 11:20:09;;;;;;;21.50;13.63;;;2.30;99.90;;;;;;6219780;23;20058;-72
2023/12/04 11:22:38;;;;;;;18.13;11.47;;;2.30;99.90;;;;;;6218989;23;20016;-72
2023/12/04 11:25:07;;;;;;;17.07;11.70;;;2.30;99.90;;;;;;6245449;23;20015;-72
2023/12/04 11:27:34;;;;;;;18.30;12.40;;;2.30;99.90;;;;;;6220349;23;20050;-73
2023/12/04 11:30:02;;;;;;;17.77;11.83;;;2.30;99.90;;;;;;6244510;23;20043;-72
2023/12/04 11:32:29;;;;;;;22.93;14.90;;;2.30;99.90;;;;;;6247353;23;20022;-73
2023/12/04 11:34:56;;;;;;;18.63;12.00;;;2.30;99.90;;;;;;6195560;23;20024;-72
2023/12/04 11:37:23;;;;;;;15.87;11.33;;;2.40;99.90;;;;;;6246653;23;20024;-72
2023/12/04 11:39:53;;;;;;;16.87;11.57;;;2.40;99.90;;;;;;6247651;23;20075;-73
2023/12/04 11:42:22;;;;;;;17.97;11.17;;;2.40;99.90;;;;;;6246896;23;20093;-73
2023/12/04 11:44:49;;;;;;;22.47;14.57;;;2.40;99.90;;;;;;6248217;23;20055;-73
2023/12/04 11:47:15;;;;;;;19.27;12.90;;;2.40;99.90;;;;;;6170428;23;20903;-73
2023/12/04 11:49:41;;;;;;;23.30;14.97;;;2.40;99.90;;;;;;6220280;23;20024;-73
2023/12/04 11:52:09;;;;;;;17.93;12.37;;;2.40;99.90;;;;;;6194992;23;20101;-72
2023/12/04 11:55:00;;;;;;;25.97;15.33;;;2.50;99.90;;;;;;6244809;23;20027;-73
2023/12/04 11:57:29;;;;;;;26.20;16.60;;;2.50;99.90;;;;;;6246056;23;20084;-73
2023/12/04 12:00:18;;;;;;;22.20;14.80;;;2.50;99.90;;;;;;6246854;23;20016;-72
2023/12/04 12:02:53;;;;;;;20.57;13.03;;;2.50;99.90;;;;;;6220047;23;20026;-72
2023/12/04 12:05:23;;;;;;;16.67;11.90;;;2.60;99.90;;;;;;6245289;23;20027;-72
2023/12/04 12:07:49;;;;;;;16.33;11.17;;;2.60;99.90;;;;;;6219352;23;20020;-72
2023/12/04 12:10:16;;;;;;;17.50;12.43;;;2.60;99.90;;;;;;6247403;23;20020;-72
2023/12/04 12:12:46;;;;;;;15.30;10.47;;;2.60;99.90;;;;;;6194053;23;20024;-72
2023/12/04 12:15:12;;;;;;;27.70;15.63;;;2.60;99.90;;;;;;6244990;23;20067;-72
2023/12/04 12:17:39;;;;;;;21.83;13.97;;;2.60;99.90;;;;;;6244835;23;20016;-71
2023/12/04 12:20:10;;;;;;;18.63;12.33;;;2.60;99.90;;;;;;6246446;23;20020;-72
2023/12/04 12:22:37;;;;;;;23.83;14.90;;;2.60;99.90;;;;;;6247359;23;20078;-72
2023/12/04 12:25:08;;;;;;;32.70;19.93;;;2.60;99.90;;;;;;6244636;23;20425;-72
2023/12/04 12:27:34;;;;;;;44.27;24.70;;;2.70;99.90;;;;;;6247589;23;20012;-72
2023/12/04 12:30:01;;;;;;;36.47;20.17;;;2.70;99.90;;;;;;6244617;23;20024;-71
2023/12/04 12:32:27;;;;;;;33.20;19.20;;;2.70;99.90;;;;;;6219978;23;20027;-75
2023/12/04 12:34:56;;;;;;;38.20;21.43;;;2.70;99.90;;;;;;6194938;23;20035;-75